Time;durP1;ratioP1;P1;durP2;ratioP2;P2;SDS_P1;SDS_P2;PMS_P1;PMS_P2;Temp;Humidity;BMP_temperature;BMP_pressure;BME280_temperature;BME280_humidity;BME280_pressure;Samples;Min_cycle;Max_cycle;Signal;HPM_P1;HPM_P2
2022/11/23 00:01:28;;;;;;;65.83;23.13;;;2.10;99.90;;;;;;4774066;30;20755;-74
2022/11/23 00:03:56;;;;;;;72.70;23.10;;;2.10;99.90;;;;;;4789107;29;20654;-75
2022/11/23 00:06:24;;;;;;;66.43;21.47;;;2.10;99.90;;;;;;4774269;30;20252;-78
2022/11/23 00:08:53;;;;;;;67.37;22.60;;;2.00;99.90;;;;;;4773097;29;20222;-78
2022/11/23 00:11:21;;;;;;;70.80;24.40;;;2.10;99.90;;;;;;4789137;29;20247;-77
2022/11/23 00:13:51;;;;;;;70.13;22.57;;;2.00;99.90;;;;;;4790463;29;20240;-79
2022/11/23 00:16:27;;;;;;;68.47;22.77;;;2.00;99.90;;;;;;4774294;30;20658;-80
2022/11/23 00:18:56;;;;;;;72.67;23.90;;;2.00;99.90;;;;;;4774465;30;20257;-81
2022/11/23 00:21:25;;;;;;;71.03;23.47;;;2.10;99.90;;;;;;4774276;30;20746;-79
2022/11/23 00:23:52;;;;;;;313.37;29.67;;;2.10;99.90;;;;;;4773961;30;20211;-80
2022/11/23 00:26:19;;;;;;;68.80;23.53;;;2.00;99.90;;;;;;4774289;30;20249;-82
2022/11/23 00:28:50;;;;;;;83.10;24.93;;;2.00;99.90;;;;;;4790613;30;20498;-77
2022/11/23 00:31:18;;;;;;;72.07;23.57;;;2.10;99.90;;;;;;4773295;30;20280;-78
2022/11/23 00:33:50;;;;;;;71.27;23.10;;;1.90;99.90;;;;;;4788743;30;20230;-78
2022/11/23 00:36:18;;;;;;;65.80;22.17;;;2.00;99.90;;;;;;4790028;29;20249;-80
2022/11/23 00:38:50;;;;;;;73.07;23.10;;;2.00;99.90;;;;;;4773961;29;20227;-77
2022/11/23 00:41:20;;;;;;;69.87;23.67;;;2.10;99.90;;;;;;4773993;30;20208;-81
2022/11/23 00:43:48;;;;;;;70.40;23.57;;;2.10;99.90;;;;;;4790416;29;20233;-86
2022/11/23 00:46:25;;;;;;;71.47;24.03;;;2.00;99.90;;;;;;4774217;30;20236;-77
2022/11/23 00:48:55;;;;;;;70.57;22.23;;;2.00;99.90;;;;;;4759334;30;20203;-80
2022/11/23 00:51:28;;;;;;;70.30;22.93;;;2.00;99.90;;;;;;4773823;30;20208;-76
2022/11/23 00:53:59;;;;;;;66.23;21.40;;;1.90;99.90;;;;;;4773952;30;20212;-76
2022/11/23 00:56:27;;;;;;;69.50;22.33;;;1.90;99.90;;;;;;4789812;30;20202;-78
2022/11/23 00:58:56;;;;;;;64.23;21.73;;;1.90;99.90;;;;;;4774034;30;20208;-77
2022/11/23 01:01:27;;;;;;;70.67;22.47;;;1.90;99.90;;;;;;4773460;30;20250;-78
2022/11/23 01:03:58;;;;;;;62.73;21.23;;;1.80;99.90;;;;;;4773693;30;20204;-77
2022/11/23 01:06:35;;;;;;;65.63;21.47;;;1.60;99.90;;;;;;4789315;30;20223;-81
2022/11/23 01:09:07;;;;;;;63.60;20.83;;;1.70;99.90;;;;;;4789049;30;20211;-83
2022/11/23 01:11:35;;;;;;;64.60;21.83;;;1.50;99.90;;;;;;4773805;30;20274;-79
2022/11/23 01:14:02;;;;;;;61.97;21.47;;;1.70;99.90;;;;;;4773417;30;20219;-79
2022/11/23 01:16:36;;;;;;;64.47;21.97;;;1.70;99.90;;;;;;4773876;30;20211;-83
2022/11/23 01:19:08;;;;;;;72.13;21.97;;;1.70;99.90;;;;;;4788306;29;20196;-79
2022/11/23 01:21:35;;;;;;;56.77;20.50;;;1.70;99.90;;;;;;4773738;30;20269;-83
2022/11/23 01:24:05;;;;;;;62.43;21.73;;;1.80;99.90;;;;;;4773232;30;20246;-79
2022/11/23 01:26:33;;;;;;;68.33;21.97;;;1.70;99.90;;;;;;4788068;30;20260;-82
2022/11/23 01:29:00;;;;;;;61.97;21.00;;;1.70;99.90;;;;;;4758951;30;20559;-80
2022/11/23 01:31:27;;;;;;;67.10;22.60;;;1.80;99.90;;;;;;4788329;29;20226;-82
2022/11/23 01:33:57;;;;;;;68.87;21.87;;;1.70;99.90;;;;;;4773465;30;20700;-80
2022/11/23 01:36:27;;;;;;;63.27;20.57;;;1.60;99.90;;;;;;4789547;29;20212;-80
2022/11/23 01:38:54;;;;;;;66.20;21.93;;;1.60;99.90;;;;;;4788342;30;20205;-81
2022/11/23 01:41:25;;;;;;;60.23;21.93;;;1.70;99.90;;;;;;4773408;30;20203;-79
2022/11/23 01:43:52;;;;;;;62.37;21.50;;;1.80;99.90;;;;;;4772994;30;20624;-80
2022/11/23 01:46:20;;;;;;;63.47;21.50;;;1.70;99.90;;;;;;4772821;30;20228;-81
2022/11/23 01:49:05;;;;;;;65.00;21.67;;;1.60;99.90;;;;;;4773147;30;20204;-81
2022/11/23 01:51:38;;;;;;;61.63;20.73;;;1.60;99.90;;;;;;4787414;29;20210;-80
2022/11/23 01:54:17;;;;;;;62.13;21.57;;;1.70;99.90;;;;;;4789151;29;20196;-76
2022/11/23 01:56:50;;;;;;;65.07;20.53;;;1.70;99.90;;;;;;4787323;29;20211;-82
2022/11/23 01:59:21;;;;;;;55.33;19.30;;;1.70;99.90;;;;;;4772557;30;20203;-80
2022/11/23 02:01:48;;;;;;;56.90;19.87;;;1.70;99.90;;;;;;4772300;30;20224;-76
2022/11/23 02:04:22;;;;;;;58.40;20.40;;;1.60;99.90;;;;;;4788488;29;20203;-80
2022/11/23 02:06:54;;;;;;;57.23;19.13;;;1.70;99.90;;;;;;4772197;30;20226;-81
2022/11/23 02:09:22;;;;;;;57.23;19.30;;;1.60;99.90;;;;;;4788592;30;20657;-76
2022/11/23 02:11:51;;;;;;;64.60;21.40;;;1.60;99.90;;;;;;4772347;30;20247;-78
2022/11/23 02:14:18;;;;;;;57.90;19.93;;;1.70;99.90;;;;;;4787392;30;20823;-77
2022/11/23 02:16:49;;;;;;;60.30;19.37;;;1.60;99.90;;;;;;4772464;30;20212;-78
2022/11/23 02:19:31;;;;;;;62.73;20.70;;;1.70;99.90;;;;;;4772458;30;20207;-79
2022/11/23 02:21:59;;;;;;;56.80;19.80;;;1.60;99.90;;;;;;4788382;29;20570;-78
2022/11/23 02:24:34;;;;;;;61.90;20.37;;;1.60;99.90;;;;;;4772436;30;20204;-80
2022/11/23 02:27:05;;;;;;;61.10;20.00;;;1.50;99.90;;;;;;4786973;30;20232;-78
2022/11/23 02:29:34;;;;;;;58.00;20.50;;;1.60;99.90;;;;;;4772594;30;20254;-77
2022/11/23 02:32:01;;;;;;;62.03;20.13;;;1.60;99.90;;;;;;4788053;29;20655;-77
2022/11/23 02:34:28;;;;;;;66.80;19.90;;;1.60;99.90;;;;;;4772090;30;20219;-77
2022/11/23 02:36:56;;;;;;;59.13;19.77;;;1.70;99.90;;;;;;4771783;30;20219;-78
2022/11/23 02:39:29;;;;;;;71.13;20.47;;;1.60;99.90;;;;;;4787425;29;20569;-78
2022/11/23 02:41:58;;;;;;;58.20;19.93;;;1.70;99.90;;;;;;4788093;29;20678;-82
2022/11/23 02:45:05;;;;;;;60.10;19.77;;;1.70;99.90;;;;;;4772040;30;20281;-79
2022/11/23 02:47:32;;;;;;;57.33;18.73;;;1.70;99.90;;;;;;4771857;30;20204;-79
2022/11/23 02:50:00;;;;;;;50.87;18.77;;;1.90;99.90;;;;;;4787222;29;20255;-79
2022/11/23 02:52:27;;;;;;;61.77;19.23;;;1.80;99.90;;;;;;4786724;30;20235;-80
2022/11/23 02:54:57;;;;;;;63.83;19.40;;;1.80;99.90;;;;;;4772879;30;20652;-91
2022/11/23 02:57:24;;;;;;;54.33;18.73;;;1.80;99.90;;;;;;4787746;30;20253;-83
2022/11/23 02:59:52;;;;;;;53.73;18.20;;;1.70;99.90;;;;;;4786924;29;20303;-84
2022/11/23 03:02:22;;;;;;;51.07;18.13;;;1.70;99.90;;;;;;4788040;29;20637;-78
2022/11/23 03:04:49;;;;;;;52.20;18.87;;;1.80;99.90;;;;;;4791195;29;20238;-83
2022/11/23 03:07:16;;;;;;;49.57;17.13;;;1.80;99.90;;;;;;4792054;29;20228;-84
2022/11/23 03:09:44;;;;;;;51.80;17.90;;;1.70;99.90;;;;;;4791603;29;20200;-83
2022/11/23 03:12:11;;;;;;;58.30;19.27;;;1.70;99.90;;;;;;4775654;30;20298;-81
2022/11/23 03:14:38;;;;;;;54.70;18.97;;;1.60;99.90;;;;;;4790783;30;20739;-84
2022/11/23 03:17:19;;;;;;;57.50;18.43;;;1.70;99.90;;;;;;4789985;30;20662;-76
2022/11/23 03:19:47;;;;;;;59.67;19.23;;;1.70;99.90;;;;;;4791779;29;20188;-80
2022/11/23 03:22:14;;;;;;;57.40;19.20;;;1.70;99.90;;;;;;4775232;30;20622;-79
2022/11/23 03:24:41;;;;;;;53.13;17.90;;;1.80;99.90;;;;;;4775228;30;20651;-84
2022/11/23 03:27:08;;;;;;;52.07;18.20;;;1.80;99.90;;;;;;4790981;30;20221;-79
2022/11/23 03:29:36;;;;;;;54.67;18.43;;;1.80;99.90;;;;;;4791627;29;20520;-84
2022/11/23 03:32:03;;;;;;;53.83;18.17;;;1.90;99.90;;;;;;4775356;30;20669;-82
2022/11/23 03:34:30;;;;;;;49.77;17.03;;;1.80;99.90;;;;;;4775312;30;20216;-81
2022/11/23 03:36:59;;;;;;;44.43;17.43;;;1.80;99.90;;;;;;4760579;30;20204;-79
2022/11/23 03:39:26;;;;;;;48.27;18.00;;;1.90;99.90;;;;;;4790014;30;20204;-83
2022/11/23 03:41:53;;;;;;;51.57;17.47;;;1.90;99.90;;;;;;4791030;29;20211;-81
2022/11/23 03:44:21;;;;;;;45.10;16.33;;;1.90;99.90;;;;;;4791451;29;20564;-80
2022/11/23 03:46:49;;;;;;;45.47;17.30;;;1.90;99.90;;;;;;4774766;30;20255;-80
2022/11/23 03:49:17;;;;;;;43.53;15.73;;;1.90;99.90;;;;;;4759995;30;20655;-84
2022/11/23 03:51:44;;;;;;;43.17;16.37;;;2.00;99.90;;;;;;4775324;30;20212;-81
2022/11/23 03:54:12;;;;;;;44.13;15.27;;;1.90;99.90;;;;;;4759783;30;20295;-81
2022/11/23 03:56:39;;;;;;;43.30;14.60;;;1.80;99.90;;;;;;4789474;30;20239;-79
2022/11/23 03:59:10;;;;;;;36.23;13.60;;;1.70;99.90;;;;;;4775521;30;20721;-79
2022/11/23 04:01:40;;;;;;;42.07;15.17;;;1.70;99.90;;;;;;4759834;30;20281;-79
2022/11/23 04:04:08;;;;;;;45.77;15.70;;;1.80;99.90;;;;;;4774328;30;20212;-82
2022/11/23 04:06:35;;;;;;;41.93;15.73;;;1.60;99.90;;;;;;4774485;30;20235;-79
2022/11/23 04:09:03;;;;;;;46.97;15.50;;;1.60;99.90;;;;;;4774409;30;20299;-81
2022/11/23 04:11:33;;;;;;;37.43;14.43;;;1.70;99.90;;;;;;4790689;29;20232;-81
2022/11/23 04:14:00;;;;;;;38.80;14.50;;;1.60;99.90;;;;;;4789236;29;20207;-85
2022/11/23 04:16:27;;;;;;;38.97;14.07;;;1.60;99.90;;;;;;4774491;30;20229;-81
2022/11/23 04:18:55;;;;;;;33.57;13.53;;;1.50;99.90;;;;;;4774609;30;20201;-80
2022/11/23 04:21:22;;;;;;;35.33;14.23;;;1.60;99.90;;;;;;4774361;30;20231;-82
2022/11/23 04:23:50;;;;;;;40.57;14.20;;;1.70;99.90;;;;;;4759258;30;20658;-83
2022/11/23 04:26:17;;;;;;;36.87;13.20;;;1.60;99.90;;;;;;4774602;30;20693;-83
2022/11/23 04:28:45;;;;;;;42.07;15.07;;;1.60;99.90;;;;;;4774628;30;20249;-84
2022/11/23 04:31:12;;;;;;;37.90;13.67;;;1.50;99.90;;;;;;4790007;29;20214;-80
2022/11/23 04:33:40;;;;;;;39.87;14.73;;;1.60;99.90;;;;;;4790564;30;20185;-85
2022/11/23 04:36:13;;;;;;;38.50;13.83;;;1.60;99.90;;;;;;4774254;30;20208;-83
2022/11/23 04:38:40;;;;;;;33.03;13.27;;;1.70;99.90;;;;;;4790274;29;20479;-85
2022/11/23 04:41:07;;;;;;;39.87;14.33;;;1.70;99.90;;;;;;4774193;30;20269;-84
2022/11/23 04:43:34;;;;;;;37.23;14.40;;;1.60;99.90;;;;;;4774058;30;20673;-80
2022/11/23 04:46:02;;;;;;;36.33;13.53;;;1.60;99.90;;;;;;4774137;30;20216;-85
2022/11/23 04:48:38;;;;;;;35.37;13.33;;;1.60;99.90;;;;;;4773656;30;20205;-85
2022/11/23 04:51:09;;;;;;;36.97;14.07;;;1.60;99.90;;;;;;4789750;29;20215;-78
2022/11/23 04:53:42;;;;;;;38.83;14.03;;;1.50;99.90;;;;;;4759210;30;20207;-82
2022/11/23 04:56:09;;;;;;;35.30;13.60;;;1.50;99.90;;;;;;4773569;30;20211;-81
2022/11/23 04:58:41;;;;;;;36.67;13.53;;;1.60;99.90;;;;;;4789964;29;20670;-82
2022/11/23 05:01:11;;;;;;;35.90;13.27;;;1.50;99.90;;;;;;4790144;29;20196;-81
2022/11/23 05:03:42;;;;;;;36.67;14.47;;;1.60;99.90;;;;;;4790977;29;20227;-83
2022/11/23 05:06:10;;;;;;;36.93;13.20;;;1.60;99.90;;;;;;4789634;30;20220;-79
2022/11/23 05:08:37;;;;;;;33.87;13.77;;;1.60;99.90;;;;;;4789676;30;20631;-80
2022/11/23 05:11:05;;;;;;;32.77;12.67;;;1.70;99.90;;;;;;4788671;30;20240;-78
2022/11/23 05:13:32;;;;;;;34.77;13.37;;;1.50;99.90;;;;;;4788441;30;20204;-80
2022/11/23 05:16:00;;;;;;;39.10;14.07;;;1.50;99.90;;;;;;4788167;30;20733;-81
2022/11/23 05:18:27;;;;;;;36.93;13.83;;;1.50;99.90;;;;;;4773306;30;20230;-84
2022/11/23 05:20:54;;;;;;;37.77;13.57;;;1.70;99.90;;;;;;4788327;29;20235;-83
2022/11/23 05:23:21;;;;;;;33.87;13.00;;;1.60;99.90;;;;;;4789321;29;20565;-84
2022/11/23 05:25:48;;;;;;;36.17;13.13;;;1.40;99.90;;;;;;4772262;30;20681;-81
2022/11/23 05:28:18;;;;;;;33.80;12.87;;;1.40;99.90;;;;;;4789070;30;20212;-79
2022/11/23 05:31:06;;;;;;;34.77;13.20;;;1.40;99.90;;;;;;4787506;29;20213;-82
2022/11/23 05:33:39;;;;;;;34.37;12.53;;;1.40;99.90;;;;;;4789523;30;20615;-87
2022/11/23 05:36:07;;;;;;;34.07;12.70;;;1.40;99.90;;;;;;4788967;29;20207;-82
2022/11/23 05:38:34;;;;;;;34.43;13.43;;;1.40;99.90;;;;;;4773540;30;20204;-82
2022/11/23 05:41:02;;;;;;;38.77;13.90;;;1.40;99.90;;;;;;4787480;30;20219;-83
2022/11/23 05:43:31;;;;;;;35.53;13.47;;;1.40;99.90;;;;;;4772728;30;20263;-79
2022/11/23 05:46:02;;;;;;;34.83;12.80;;;1.60;99.90;;;;;;4772412;30;20210;-81
2022/11/23 05:48:29;;;;;;;38.10;13.47;;;1.40;99.90;;;;;;4772818;30;20209;-85
2022/11/23 05:50:57;;;;;;;31.97;12.60;;;1.40;99.90;;;;;;4772589;29;20207;-84
2022/11/23 05:53:31;;;;;;;38.23;14.03;;;1.50;99.90;;;;;;4788638;30;20235;-80
2022/11/23 05:56:02;;;;;;;37.43;14.00;;;1.40;99.90;;;;;;4772473;30;20212;-84
2022/11/23 05:58:29;;;;;;;38.67;14.10;;;1.30;99.90;;;;;;4773185;30;20235;-82
2022/11/23 06:01:00;;;;;;;38.97;14.07;;;1.30;99.90;;;;;;4774878;30;20208;-80
2022/11/23 06:03:28;;;;;;;36.03;13.70;;;1.40;99.90;;;;;;4788401;29;20581;-78
2022/11/23 06:05:55;;;;;;;36.53;14.03;;;1.30;99.90;;;;;;4772121;30;20208;-79
2022/11/23 06:08:25;;;;;;;37.30;13.30;;;1.40;99.90;;;;;;4772621;30;20200;-83
2022/11/23 06:10:55;;;;;;;36.67;12.80;;;1.30;99.90;;;;;;4788313;29;20228;-86
2022/11/23 06:13:22;;;;;;;33.77;13.53;;;1.40;99.90;;;;;;4772419;30;20672;-77
2022/11/23 06:15:50;;;;;;;32.73;12.60;;;1.40;99.90;;;;;;4772089;30;20204;-82
2022/11/23 06:18:20;;;;;;;37.53;14.70;;;1.30;99.90;;;;;;4788199;29;20269;-81
2022/11/23 06:20:50;;;;;;;35.13;13.07;;;1.50;99.90;;;;;;4788254;29;20217;-78
2022/11/23 06:23:17;;;;;;;34.23;13.40;;;1.30;99.90;;;;;;4772292;30;20220;-78
2022/11/23 06:25:44;;;;;;;34.60;13.07;;;1.40;99.90;;;;;;4786856;30;20215;-78
2022/11/23 06:28:12;;;;;;;33.63;12.80;;;1.40;99.90;;;;;;4786842;30;20236;-76
2022/11/23 06:30:39;;;;;;;32.40;12.70;;;1.30;99.90;;;;;;4786841;29;20570;-85
2022/11/23 06:33:06;;;;;;;30.37;11.90;;;1.30;99.90;;;;;;4788073;29;20231;-82
2022/11/23 06:35:36;;;;;;;30.87;11.67;;;1.20;99.90;;;;;;4788137;29;20203;-83
2022/11/23 06:38:04;;;;;;;31.30;12.13;;;1.20;99.90;;;;;;4771866;30;20210;-78
2022/11/23 06:40:31;;;;;;;35.13;13.73;;;1.20;99.90;;;;;;4786565;29;20211;-77
2022/11/23 06:42:59;;;;;;;34.60;12.50;;;1.20;99.90;;;;;;4789573;30;20212;-81
2022/11/23 06:45:30;;;;;;;30.90;13.37;;;1.20;99.90;;;;;;4787022;30;20580;-86
2022/11/23 06:48:02;;;;;;;32.97;12.13;;;1.20;99.90;;;;;;4787058;30;20256;-77
2022/11/23 06:50:30;;;;;;;31.60;12.67;;;1.30;99.90;;;;;;4786578;30;20200;-79
2022/11/23 06:53:11;;;;;;;32.17;13.50;;;1.30;99.90;;;;;;4787363;30;20249;-83
2022/11/23 06:55:38;;;;;;;32.03;12.93;;;1.30;99.90;;;;;;4787728;29;20716;-88
2022/11/23 06:58:06;;;;;;;34.30;13.23;;;1.40;99.90;;;;;;4787934;30;20200;-76
2022/11/23 07:00:33;;;;;;;33.63;12.73;;;1.20;99.90;;;;;;4787644;29;20231;-81
2022/11/23 07:03:01;;;;;;;30.03;12.10;;;1.20;99.90;;;;;;4771461;30;20231;-81
2022/11/23 07:05:28;;;;;;;25.47;11.23;;;1.10;99.90;;;;;;4771751;30;20213;-76
2022/11/23 07:07:56;;;;;;;25.47;11.10;;;1.00;99.90;;;;;;4787800;29;20263;-76
2022/11/23 07:10:24;;;;;;;23.27;10.73;;;1.00;99.90;;;;;;4771527;30;20330;-73
2022/11/23 07:12:51;;;;;;;25.77;11.13;;;1.10;99.90;;;;;;4771569;30;20249;-77
2022/11/23 07:15:18;;;;;;;27.90;11.27;;;1.00;99.90;;;;;;4771521;30;20207;-77
2022/11/23 07:17:46;;;;;;;23.37;10.07;;;0.90;99.90;;;;;;4787319;29;20205;-76
2022/11/23 07:20:13;;;;;;;28.97;11.23;;;1.00;99.90;;;;;;4771162;30;20201;-73
2022/11/23 07:22:40;;;;;;;29.73;11.83;;;1.00;99.90;;;;;;4782395;29;20206;-76
2022/11/23 07:25:07;;;;;;;30.93;11.50;;;1.00;99.90;;;;;;4805406;29;20330;-77
2022/11/23 07:27:34;;;;;;;32.00;12.93;;;1.00;99.90;;;;;;4789455;29;20227;-74
2022/11/23 07:30:02;;;;;;;30.13;12.40;;;1.10;99.90;;;;;;4789367;29;20542;-71
2022/11/23 07:32:29;;;;;;;33.90;12.97;;;1.00;99.90;;;;;;4789203;29;20215;-79
2022/11/23 07:34:56;;;;;;;28.03;12.30;;;1.00;99.90;;;;;;4805145;29;20196;-81
2022/11/23 07:37:23;;;;;;;30.90;12.60;;;1.00;99.90;;;;;;4789186;29;20302;-79
2022/11/23 07:39:51;;;;;;;32.77;13.57;;;1.00;99.90;;;;;;4789502;29;20204;-78
2022/11/23 07:42:24;;;;;;;34.77;12.80;;;1.00;99.90;;;;;;4789228;29;20566;-82
2022/11/23 07:44:59;;;;;;;29.13;12.20;;;1.00;99.90;;;;;;4789094;29;20206;-78
2022/11/23 07:47:26;;;;;;;31.80;12.53;;;1.00;99.90;;;;;;4805375;29;20326;-78
2022/11/23 07:49:53;;;;;;;31.60;12.20;;;1.10;99.90;;;;;;4790827;29;20276;-78
2022/11/23 07:52:20;;;;;;;31.07;12.73;;;1.10;99.90;;;;;;4808844;29;20200;-78
2022/11/23 07:54:47;;;;;;;28.37;11.60;;;1.00;99.90;;;;;;4792528;29;20210;-81
2022/11/23 07:57:14;;;;;;;28.03;11.30;;;1.00;99.90;;;;;;4792265;29;20206;-79
2022/11/23 07:59:46;;;;;;;27.73;11.90;;;1.10;99.90;;;;;;4792448;29;20242;-85
2022/11/23 08:02:34;;;;;;;25.97;11.33;;;1.20;99.90;;;;;;4792057;29;20235;-85
2022/11/23 08:05:01;;;;;;;28.63;11.30;;;1.20;99.90;;;;;;4807288;29;20239;-80
2022/11/23 08:07:28;;;;;;;31.07;13.57;;;1.30;99.90;;;;;;4792358;29;20253;-82
2022/11/23 08:09:56;;;;;;;30.37;12.40;;;1.20;99.90;;;;;;4795754;29;20207;-81
2022/11/23 08:12:23;;;;;;;28.83;12.17;;;1.30;99.90;;;;;;4773860;30;20576;-81
2022/11/23 08:14:50;;;;;;;29.67;12.60;;;1.10;99.90;;;;;;4774216;30;20266;-82
2022/11/23 08:17:17;;;;;;;27.80;12.57;;;1.00;99.90;;;;;;4789093;30;20552;-80
2022/11/23 08:19:44;;;;;;;31.87;13.13;;;1.00;99.90;;;;;;4774128;30;20208;-80
2022/11/23 08:22:11;;;;;;;34.17;12.40;;;1.10;99.90;;;;;;4788827;29;20208;-80
2022/11/23 08:24:41;;;;;;;29.60;13.17;;;1.00;99.90;;;;;;4774280;30;20295;-81
2022/11/23 08:27:09;;;;;;;28.13;11.77;;;1.00;99.90;;;;;;4775337;30;20253;-82
2022/11/23 08:29:36;;;;;;;38.93;12.63;;;0.90;99.90;;;;;;4773976;30;20204;-80
2022/11/23 08:32:03;;;;;;;26.33;10.27;;;0.90;99.90;;;;;;4789391;30;20299;-81
2022/11/23 08:34:30;;;;;;;31.00;11.10;;;0.80;99.90;;;;;;4788851;30;20327;-82
2022/11/23 08:36:58;;;;;;;24.23;10.43;;;0.90;99.90;;;;;;4788880;29;20211;-82
2022/11/23 08:39:25;;;;;;;28.37;10.93;;;0.80;99.90;;;;;;4789868;29;20298;-82
2022/11/23 08:41:52;;;;;;;26.17;11.40;;;0.90;99.90;;;;;;4774029;30;20219;-80
2022/11/23 08:44:19;;;;;;;26.40;11.00;;;1.00;99.90;;;;;;4773519;30;20539;-80
2022/11/23 08:46:46;;;;;;;24.30;11.60;;;0.90;99.90;;;;;;4773523;30;20692;-84
2022/11/23 08:49:13;;;;;;;29.80;11.90;;;0.90;99.90;;;;;;4789873;29;20231;-80
2022/11/23 08:51:40;;;;;;;26.93;11.43;;;1.00;99.90;;;;;;4774161;29;20637;-82
2022/11/23 08:54:14;;;;;;;31.57;12.20;;;1.00;99.90;;;;;;4774564;30;20215;-83
2022/11/23 08:56:41;;;;;;;28.70;12.40;;;1.10;99.90;;;;;;4789601;29;20613;-84
2022/11/23 08:59:09;;;;;;;30.60;12.30;;;1.10;99.90;;;;;;4775490;30;20644;-82
2022/11/23 09:01:36;;;;;;;31.90;13.03;;;0.90;99.90;;;;;;4788653;29;20303;-82
2022/11/23 09:04:03;;;;;;;29.83;12.30;;;1.00;99.90;;;;;;4788422;29;20578;-83
2022/11/23 09:06:34;;;;;;;24.43;11.13;;;1.00;99.90;;;;;;4788210;29;20207;-82
2022/11/23 09:09:02;;;;;;;24.83;11.43;;;1.00;99.90;;;;;;4774226;30;20227;-82
2022/11/23 09:11:33;;;;;;;29.13;12.17;;;1.10;99.90;;;;;;4774697;30;20230;-80
2022/11/23 09:14:03;;;;;;;32.20;12.97;;;1.20;99.90;;;;;;4774046;30;20291;-82
2022/11/23 09:16:33;;;;;;;29.87;12.23;;;1.20;99.90;;;;;;4773065;30;20307;-80
2022/11/23 09:19:04;;;;;;;26.83;11.63;;;1.30;99.90;;;;;;4773038;30;20231;-83
2022/11/23 09:21:34;;;;;;;27.93;11.83;;;1.20;99.90;;;;;;4773155;29;20295;-87
2022/11/23 09:24:01;;;;;;;25.30;11.57;;;1.30;99.90;;;;;;4772992;30;20203;-82
2022/11/23 09:26:30;;;;;;;29.17;12.20;;;1.20;99.90;;;;;;4772907;30;20268;-81
2022/11/23 09:28:57;;;;;;;23.90;11.13;;;1.10;99.90;;;;;;4772821;30;20281;-80
2022/11/23 09:31:27;;;;;;;23.70;11.00;;;1.10;99.90;;;;;;4787928;30;20290;-83
2022/11/23 09:33:54;;;;;;;24.43;10.93;;;1.20;99.90;;;;;;4787725;29;20282;-82
2022/11/23 09:36:22;;;;;;;23.03;11.67;;;1.20;99.90;;;;;;4788953;30;20200;-82
2022/11/23 09:38:50;;;;;;;23.37;11.17;;;1.20;99.90;;;;;;4787692;29;20658;-81
2022/11/23 09:41:45;;;;;;;25.07;11.30;;;1.10;99.90;;;;;;4772381;30;20204;-80
2022/11/23 09:44:18;;;;;;;25.03;11.40;;;1.10;99.90;;;;;;4788520;29;20201;-79
2022/11/23 09:47:05;;;;;;;26.80;11.77;;;1.10;99.90;;;;;;4772717;30;20299;-85
2022/11/23 09:50:07;;;;;;;29.03;12.07;;;1.10;99.90;;;;;;4788814;30;20691;-84
2022/11/23 09:52:36;;;;;;;24.00;10.80;;;1.10;99.90;;;;;;4787244;29;20214;-83
2022/11/23 09:55:20;;;;;;;23.60;11.03;;;1.10;99.90;;;;;;4772621;30;20205;-85
2022/11/23 09:57:51;;;;;;;19.40;8.97;;;1.20;99.90;;;;;;4787453;30;20302;-83
2022/11/23 10:00:21;;;;;;;18.97;9.00;;;1.20;99.90;;;;;;4772335;30;20260;-77
2022/11/23 10:02:50;;;;;;;19.93;9.33;;;1.20;99.90;;;;;;4758092;30;20232;-81
2022/11/23 10:05:21;;;;;;;20.40;9.77;;;1.20;99.90;;;;;;4786905;29;20203;-79
2022/11/23 10:07:53;;;;;;;15.80;8.47;;;1.30;99.90;;;;;;4787553;29;20235;-80
2022/11/23 10:10:35;;;;;;;18.67;9.20;;;1.30;99.90;;;;;;4788084;29;20236;-78
2022/11/23 10:13:40;;;;;;;19.43;9.77;;;1.40;99.90;;;;;;4787927;29;20200;-85
2022/11/23 10:16:10;;;;;;;23.70;9.27;;;1.30;99.90;;;;;;4757294;30;20204;-83
2022/11/23 10:19:05;;;;;;;19.40;9.57;;;1.30;99.90;;;;;;4787326;30;20202;-81
2022/11/23 10:21:51;;;;;;;20.83;9.60;;;1.30;99.90;;;;;;4786973;29;20682;-82
2022/11/23 10:24:30;;;;;;;19.27;9.73;;;1.20;99.90;;;;;;4772076;30;20204;-83
2022/11/23 10:26:57;;;;;;;17.93;9.13;;;1.20;99.90;;;;;;4772092;30;20208;-79
2022/11/23 10:29:41;;;;;;;20.50;9.47;;;1.30;99.90;;;;;;4771982;30;20647;-84
2022/11/23 10:32:36;;;;;;;19.53;10.13;;;1.30;99.90;;;;;;4787527;30;20645;-83
2022/11/23 10:35:16;;;;;;;20.47;10.07;;;1.20;99.90;;;;;;4787194;30;20200;-80
2022/11/23 10:37:43;;;;;;;21.00;10.07;;;1.30;99.90;;;;;;4771635;30;20208;-81
2022/11/23 10:40:17;;;;;;;20.80;10.53;;;1.20;99.90;;;;;;4771980;30;20212;-81
2022/11/23 10:42:50;;;;;;;26.83;10.70;;;1.20;99.90;;;;;;4772258;30;20209;-83
2022/11/23 10:45:26;;;;;;;23.13;10.63;;;1.20;99.90;;;;;;4772134;30;20233;-82
2022/11/23 10:47:59;;;;;;;25.30;10.97;;;1.30;99.90;;;;;;4786834;30;20233;-85
2022/11/23 10:50:39;;;;;;;20.20;10.80;;;1.10;99.90;;;;;;4786673;30;20261;-83
2022/11/23 10:53:22;;;;;;;21.10;10.50;;;1.10;99.90;;;;;;4771700;30;20215;-84
2022/11/23 10:55:54;;;;;;;25.00;10.97;;;1.20;99.90;;;;;;4771586;30;20208;-80
2022/11/23 10:58:34;;;;;;;22.83;10.60;;;1.20;99.90;;;;;;4786839;29;20265;-80
2022/11/23 11:01:11;;;;;;;24.83;11.50;;;1.30;99.90;;;;;;4787903;29;20752;-81
2022/11/23 11:03:38;;;;;;;25.03;11.20;;;1.30;99.90;;;;;;4771543;30;20228;-80
2022/11/23 11:06:06;;;;;;;25.53;12.37;;;1.30;99.90;;;;;;4787747;29;20207;-79
2022/11/23 11:08:55;;;;;;;24.90;12.53;;;1.40;99.90;;;;;;4771895;30;20251;-81
2022/11/23 11:11:31;;;;;;;25.33;11.97;;;1.40;99.90;;;;;;4771124;30;20277;-80
2022/11/23 11:14:15;;;;;;;24.27;11.97;;;1.50;99.90;;;;;;4786379;30;20204;-81
2022/11/23 11:16:52;;;;;;;27.40;12.97;;;1.50;99.90;;;;;;4786388;29;20208;-81
2022/11/23 11:19:32;;;;;;;27.47;12.13;;;1.60;99.90;;;;;;4771653;30;20674;-80
2022/11/23 11:22:03;;;;;;;29.60;13.30;;;1.50;99.90;;;;;;4787876;30;20200;-82
2022/11/23 11:24:43;;;;;;;26.33;12.57;;;1.40;99.90;;;;;;4787545;29;20208;-80
2022/11/23 11:27:19;;;;;;;25.63;12.60;;;1.40;99.90;;;;;;4774948;30;20245;-80
2022/11/23 11:29:49;;;;;;;27.77;13.23;;;1.30;99.90;;;;;;4791238;29;20630;-79
2022/11/23 11:32:23;;;;;;;30.97;13.23;;;1.40;99.90;;;;;;4789740;29;20218;-78
2022/11/23 11:35:08;;;;;;;34.17;14.10;;;1.40;99.90;;;;;;4790005;30;20212;-81
2022/11/23 11:37:45;;;;;;;26.10;12.60;;;1.60;99.90;;;;;;4790957;29;20254;-83
2022/11/23 11:40:36;;;;;;;30.07;14.10;;;1.50;99.90;;;;;;4774980;30;20291;-79
2022/11/23 11:43:28;;;;;;;30.27;13.93;;;1.50;99.90;;;;;;4774562;30;20220;-78
2022/11/23 11:46:14;;;;;;;29.80;12.97;;;1.50;99.90;;;;;;4774866;30;20216;-81
2022/11/23 11:49:41;;;;;;;28.40;14.00;;;1.40;99.90;;;;;;4776743;30;20701;-81
2022/11/23 11:52:14;;;;;;;29.80;13.67;;;1.50;99.90;;;;;;4789557;30;20218;-81
2022/11/23 11:55:16;;;;;;;29.97;14.03;;;1.50;99.90;;;;;;4789410;30;20209;-82
2022/11/23 11:58:02;;;;;;;30.50;13.97;;;1.50;99.90;;;;;;4752927;30;20714;-82
2022/11/23 12:00:35;;;;;;;31.83;13.57;;;1.60;99.90;;;;;;4752916;30;20263;-83
2022/11/23 12:03:14;;;;;;;29.23;13.43;;;1.50;99.90;;;;;;4738233;30;20229;-83
2022/11/23 12:05:50;;;;;;;29.33;13.60;;;1.40;99.90;;;;;;4752728;30;20217;-82
2022/11/23 12:08:16;;;;;;;27.60;13.30;;;1.40;99.90;;;;;;4752424;30;20237;-81
2022/11/23 12:10:46;;;;;;;29.70;14.27;;;1.30;99.90;;;;;;4730175;30;20253;-81
2022/11/23 12:13:21;;;;;;;32.90;14.23;;;1.30;99.90;;;;;;4734795;30;20214;-81
2022/11/23 12:16:14;;;;;;;32.07;14.33;;;1.20;99.90;;;;;;4735028;30;20716;-81
2022/11/23 12:18:59;;;;;;;30.77;14.40;;;1.30;99.90;;;;;;4734827;30;20717;-82
2022/11/23 12:21:46;;;;;;;31.70;14.73;;;1.40;99.90;;;;;;4735003;30;20210;-81
2022/11/23 12:24:41;;;;;;;37.80;15.73;;;1.50;99.90;;;;;;4720275;30;20685;-80
2022/11/23 12:27:23;;;;;;;33.20;14.80;;;1.60;99.90;;;;;;4720124;30;20696;-80
2022/11/23 12:30:17;;;;;;;37.90;16.10;;;1.60;99.90;;;;;;4734712;30;20813;-81
2022/11/23 12:32:59;;;;;;;41.13;16.07;;;1.50;99.90;;;;;;4734901;30;20683;-80
2022/11/23 12:35:41;;;;;;;37.40;16.40;;;1.50;99.90;;;;;;4778169;30;20766;-79
2022/11/23 12:38:42;;;;;;;37.47;16.43;;;1.50;99.90;;;;;;4772016;30;20579;-80
2022/11/23 12:41:15;;;;;;;38.20;16.13;;;1.50;99.90;;;;;;4771030;30;20215;-81
2022/11/23 12:44:20;;;;;;;38.90;16.30;;;1.50;99.90;;;;;;4785735;30;20212;-80
2022/11/23 12:46:50;;;;;;;34.57;16.43;;;1.50;99.90;;;;;;4771987;30;20201;-79
2022/11/23 12:49:31;;;;;;;36.00;16.30;;;1.40;99.90;;;;;;4770516;30;20236;-80
2022/11/23 12:52:19;;;;;;;58.83;17.00;;;1.40;99.90;;;;;;4771902;30;20675;-79
2022/11/23 12:54:57;;;;;;;40.50;15.90;;;1.40;99.90;;;;;;4771130;30;20219;-80
2022/11/23 12:57:33;;;;;;;34.50;15.50;;;1.30;99.90;;;;;;4770313;30;20200;-80
2022/11/23 13:00:15;;;;;;;38.57;16.57;;;1.40;99.90;;;;;;4771714;30;20196;-81
2022/11/23 13:03:00;;;;;;;36.37;15.40;;;1.40;99.90;;;;;;4770149;30;20286;-80